Terminal Aerodrome Forecast
Issued by NWS

Home | Current Version | Previous Version | Text Only | Print | Product List | Glossary On
Versions: 1 2 3 4 5 6 7 8 9 10 11 12
011
FTUS42 TJSJ 132331
TAFKPK
TAF
TKPK 132331Z 1400/1424 08007KT P6SM VCSH SCT020
     FM141300 09011KT P6SM VCSH FEW020 SCT030
      AMD NOT SKED 1402/1411=

USA.gov is the U.S. government's official web portal to all federal, state and local government web resources and services.